createdAt,value
2022-11-22T00:00:38.555Z,70.50
2022-11-22T00:03:18.749Z,74.57
2022-11-22T00:05:46.026Z,70.23
2022-11-22T00:08:13.077Z,70.93
2022-11-22T00:10:40.395Z,75.17
2022-11-22T00:13:07.347Z,74.60
2022-11-22T00:15:34.629Z,81.40
2022-11-22T00:18:01.682Z,78.97
2022-11-22T00:20:29.410Z,76.33
2022-11-22T00:22:57.460Z,77.70
2022-11-22T00:25:24.893Z,77.00
2022-11-22T00:27:51.813Z,76.17
2022-11-22T00:30:19.363Z,76.93
2022-11-22T00:32:46.245Z,75.33
2022-11-22T00:35:13.452Z,78.10
2022-11-22T00:37:40.370Z,72.90
2022-11-22T00:40:07.997Z,77.03
2022-11-22T00:42:34.916Z,73.53
2022-11-22T00:45:02.118Z,71.53
2022-11-22T00:47:29.046Z,73.43
2022-11-22T00:49:56.242Z,71.13
2022-11-22T00:52:23.132Z,72.77
2022-11-22T00:54:54.745Z,72.90
2022-11-22T00:57:22.512Z,72.70
2022-11-22T00:59:49.677Z,71.97
2022-11-22T01:02:16.925Z,73.47
2022-11-22T01:04:44.233Z,77.97
2022-11-22T01:07:11.772Z,73.17
2022-11-22T01:09:39.171Z,73.30
2022-11-22T01:12:06.134Z,73.30
2022-11-22T01:14:33.807Z,69.87
2022-11-22T01:17:00.762Z,67.40
2022-11-22T01:19:28.189Z,72.20
2022-11-22T01:21:55.396Z,71.27
2022-11-22T01:24:22.636Z,67.37
2022-11-22T01:26:49.614Z,67.70
2022-11-22T01:29:16.935Z,65.43
2022-11-22T01:31:43.926Z,67.00
2022-11-22T01:34:11.209Z,67.53
2022-11-22T01:36:38.132Z,67.07
2022-11-22T01:39:05.303Z,62.30
2022-11-22T01:41:32.234Z,64.37
2022-11-22T01:44:21.363Z,63.73
2022-11-22T01:46:52.052Z,62.37
2022-11-22T01:49:36.242Z,62.80
2022-11-22T01:52:07.134Z,58.07
2022-11-22T01:54:38.374Z,60.60
2022-11-22T01:57:10.732Z,53.63
2022-11-22T01:59:44.923Z,57.63
2022-11-22T02:02:13.027Z,56.00
2022-11-22T02:04:41.651Z,49.20
2022-11-22T02:07:41.665Z,49.43
2022-11-22T02:10:09.618Z,49.17
2022-11-22T02:12:37.170Z,45.27
2022-11-22T02:15:04.814Z,44.17
2022-11-22T02:17:31.756Z,42.53
2022-11-22T02:19:59.035Z,43.40
2022-11-22T02:22:31.668Z,39.97
2022-11-22T02:25:13.932Z,41.90
2022-11-22T02:27:41.170Z,40.87
2022-11-22T02:30:09.618Z,40.63
2022-11-22T02:32:36.679Z,41.90
2022-11-22T02:35:33.308Z,40.57
2022-11-22T02:38:13.010Z,40.10
2022-11-22T02:41:11.606Z,38.80
2022-11-22T02:43:42.155Z,40.20
2022-11-22T02:46:12.711Z,40.40
2022-11-22T02:48:46.210Z,42.83
2022-11-22T02:51:19.847Z,41.07
2022-11-22T02:53:48.993Z,42.63
2022-11-22T02:56:17.432Z,41.97
2022-11-22T02:58:44.426Z,41.20
2022-11-22T03:01:13.012Z,43.50
2022-11-22T03:03:40.097Z,47.17
2022-11-22T03:06:07.249Z,46.33
2022-11-22T03:08:34.186Z,44.70
2022-11-22T03:11:01.410Z,47.17
2022-11-22T03:13:28.362Z,41.17
2022-11-22T03:15:55.627Z,40.73
2022-11-22T03:18:22.556Z,40.07
2022-11-22T03:20:49.773Z,38.80
2022-11-22T03:23:16.795Z,40.30
2022-11-22T03:25:44.285Z,40.77
2022-11-22T03:28:11.307Z,41.53
2022-11-22T03:30:42.077Z,40.23
2022-11-22T03:33:09.660Z,39.90
2022-11-22T03:35:37.608Z,38.97
2022-11-22T03:38:04.746Z,39.90
2022-11-22T03:40:31.946Z,39.43
2022-11-22T03:43:00.505Z,36.77
2022-11-22T03:45:31.233Z,37.17
2022-11-22T03:47:58.286Z,36.10
2022-11-22T03:50:25.761Z,36.33
2022-11-22T03:52:52.642Z,38.87
2022-11-22T03:55:19.951Z,36.40
2022-11-22T03:57:46.905Z,36.60
2022-11-22T04:00:14.620Z,37.83
2022-11-22T04:02:43.783Z,37.23
2022-11-22T04:05:10.967Z,35.77
2022-11-22T04:07:38.063Z,37.87
2022-11-22T04:10:06.244Z,38.77
2022-11-22T04:12:33.334Z,37.03
2022-11-22T04:15:06.632Z,37.63
2022-11-22T04:17:46.257Z,38.03
2022-11-22T04:20:34.354Z,38.23
2022-11-22T04:23:07.218Z,38.93
2022-11-22T04:25:36.437Z,37.87
2022-11-22T04:28:04.298Z,37.30
2022-11-22T04:30:50.540Z,39.30
2022-11-22T04:33:18.042Z,39.17
2022-11-22T04:35:46.180Z,38.37
2022-11-22T04:38:13.940Z,38.50
2022-11-22T04:40:41.793Z,40.27
2022-11-22T04:43:33.314Z,38.87
2022-11-22T04:46:01.526Z,35.50
2022-11-22T04:48:28.397Z,37.53
2022-11-22T04:51:14.314Z,37.93
2022-11-22T04:53:41.414Z,39.10
2022-11-22T04:56:08.618Z,38.97
2022-11-22T04:58:35.622Z,40.97
2022-11-22T05:01:02.935Z,41.13
2022-11-22T05:03:29.924Z,40.87
2022-11-22T05:06:00.859Z,37.40
2022-11-22T05:08:27.726Z,39.33
2022-11-22T05:10:57.596Z,42.37
2022-11-22T05:13:37.650Z,43.50
2022-11-22T05:16:07.014Z,45.40
2022-11-22T05:18:34.255Z,44.33
2022-11-22T05:21:09.702Z,42.77
2022-11-22T05:23:55.197Z,44.10
2022-11-22T05:26:34.052Z,45.43
2022-11-22T05:29:06.995Z,40.30
2022-11-22T05:31:35.891Z,42.00
2022-11-22T05:34:03.142Z,41.50
2022-11-22T05:36:33.116Z,39.50
2022-11-22T05:39:00.646Z,39.00
2022-11-22T05:41:28.028Z,39.90
2022-11-22T05:43:56.592Z,38.50
2022-11-22T05:46:26.595Z,39.33
2022-11-22T05:48:56.197Z,39.43
2022-11-22T05:51:34.222Z,38.53
2022-11-22T05:54:02.563Z,38.10
2022-11-22T05:56:30.009Z,40.43
2022-11-22T05:58:57.092Z,41.57
2022-11-22T06:01:24.916Z,39.10
2022-11-22T06:03:52.695Z,35.90
2022-11-22T06:06:20.120Z,35.73
2022-11-22T06:08:48.359Z,35.63
2022-11-22T06:11:18.623Z,36.50
2022-11-22T06:13:48.355Z,36.17
2022-11-22T06:16:15.850Z,38.60
2022-11-22T06:18:43.102Z,35.87
2022-11-22T06:21:19.424Z,34.00
2022-11-22T06:23:46.653Z,34.70
2022-11-22T06:26:16.184Z,38.67
2022-11-22T06:28:44.049Z,38.90
2022-11-22T06:31:13.807Z,40.03
2022-11-22T06:33:41.758Z,37.93
2022-11-22T06:36:10.187Z,37.53
2022-11-22T06:38:38.382Z,39.17
2022-11-22T06:41:08.189Z,39.00
2022-11-22T06:43:36.353Z,38.27
2022-11-22T06:46:05.011Z,36.00
2022-11-22T06:48:33.810Z,37.07
2022-11-22T06:51:11.973Z,40.50
2022-11-22T06:53:47.438Z,38.87
2022-11-22T06:56:21.655Z,38.17
2022-11-22T06:58:50.495Z,41.90
2022-11-22T07:01:23.645Z,39.47
2022-11-22T07:03:51.757Z,38.33
2022-11-22T07:06:19.518Z,39.10
2022-11-22T07:08:46.831Z,39.27
2022-11-22T07:11:18.546Z,36.27
2022-11-22T07:13:46.344Z,37.70
2022-11-22T07:16:16.768Z,37.80
2022-11-22T07:18:44.579Z,42.23
2022-11-22T07:21:14.427Z,39.93
2022-11-22T07:23:43.028Z,39.63
2022-11-22T07:26:11.671Z,40.93
2022-11-22T07:28:39.043Z,42.97
2022-11-22T07:31:08.263Z,39.60
2022-11-22T07:33:35.702Z,42.00
2022-11-22T07:36:14.330Z,42.47
2022-11-22T07:38:41.543Z,41.40
2022-11-22T07:41:09.941Z,42.00
2022-11-22T07:43:37.355Z,40.90
2022-11-22T07:46:11.569Z,41.27
2022-11-22T07:48:38.460Z,44.60
2022-11-22T07:51:07.621Z,41.47
2022-11-22T07:53:35.895Z,41.57
2022-11-22T07:56:04.867Z,39.77
2022-11-22T07:58:32.664Z,41.10
2022-11-22T08:01:08.842Z,40.83
2022-11-22T08:03:36.773Z,37.03
2022-11-22T08:06:06.740Z,39.27
2022-11-22T08:08:35.051Z,40.17
2022-11-22T08:11:02.797Z,41.80
2022-11-22T08:13:31.117Z,41.33
2022-11-22T08:16:05.572Z,41.30
2022-11-22T08:18:34.557Z,39.30
2022-11-22T08:21:14.207Z,41.03
2022-11-22T08:23:42.446Z,37.40
2022-11-22T08:26:12.628Z,39.73
2022-11-22T08:28:40.857Z,37.90
2022-11-22T08:31:12.209Z,37.97
2022-11-22T08:33:40.216Z,39.83
2022-11-22T08:36:07.949Z,41.73
2022-11-22T08:38:36.160Z,40.47
2022-11-22T08:41:04.311Z,38.00
2022-11-22T08:43:31.841Z,37.80
2022-11-22T08:46:00.190Z,37.73
2022-11-22T08:48:28.019Z,37.10
2022-11-22T08:50:57.258Z,38.43
2022-11-22T08:53:25.357Z,39.30
2022-11-22T08:55:53.352Z,38.33
2022-11-22T08:58:20.681Z,40.97
2022-11-22T09:00:47.983Z,39.40
2022-11-22T09:03:14.944Z,40.20
2022-11-22T09:08:32.646Z,36.20
2022-11-22T09:11:06.826Z,35.93
2022-11-22T09:13:34.143Z,39.07
2022-11-22T09:16:09.830Z,40.37
2022-11-22T09:18:37.561Z,39.43
2022-11-22T09:21:11.394Z,35.90
2022-11-22T09:23:38.454Z,35.10
2022-11-22T09:26:11.930Z,35.23
2022-11-22T09:28:38.896Z,35.57
2022-11-22T09:31:08.749Z,32.23
2022-11-22T09:33:38.130Z,32.90
2022-11-22T09:36:05.493Z,34.60
2022-11-22T09:38:33.830Z,32.63
2022-11-22T09:41:10.897Z,29.17
2022-11-22T09:44:06.553Z,30.37
2022-11-22T09:46:39.588Z,32.67
2022-11-22T09:49:16.709Z,30.10
2022-11-22T09:51:54.057Z,29.07
2022-11-22T09:54:35.456Z,30.13
2022-11-22T09:57:06.366Z,38.33
2022-11-22T09:59:36.932Z,30.90
2022-11-22T10:02:19.203Z,29.60
2022-11-22T10:05:24.697Z,29.23
2022-11-22T10:08:01.218Z,30.33
2022-11-22T10:10:38.208Z,32.00
2022-11-22T10:13:19.983Z,28.70
2022-11-22T10:16:04.843Z,31.23
2022-11-22T10:18:53.707Z,28.90
2022-11-22T10:21:20.863Z,32.03
2022-11-22T10:23:48.041Z,30.97
2022-11-22T10:26:23.970Z,31.03
2022-11-22T10:29:00.303Z,29.87
2022-11-22T10:31:45.501Z,30.03
2022-11-22T10:34:47.672Z,31.70
2022-11-22T10:37:47.182Z,29.17
2022-11-22T10:40:33.036Z,29.73
2022-11-22T10:43:31.959Z,32.47
2022-11-22T10:46:03.671Z,36.40
2022-11-22T10:48:49.196Z,37.43
2022-11-22T10:51:42.596Z,32.73
2022-11-22T10:54:31.313Z,33.53
2022-11-22T10:57:55.534Z,32.93
2022-11-22T11:00:27.143Z,33.00
2022-11-22T11:02:57.824Z,34.20
2022-11-22T11:11:31.505Z,31.23
2022-11-22T11:14:07.895Z,32.13
2022-11-22T11:16:38.293Z,30.23
2022-11-22T11:19:11.412Z,32.87
2022-11-22T11:21:38.312Z,32.23
2022-11-22T11:24:14.057Z,31.27
2022-11-22T11:26:43.821Z,32.30
2022-11-22T11:29:17.006Z,30.43
2022-11-22T11:31:49.691Z,33.37
2022-11-22T11:34:29.581Z,35.83
2022-11-22T11:36:58.444Z,34.20
2022-11-22T11:39:34.347Z,35.97
2022-11-22T11:42:20.732Z,36.13
2022-11-22T11:44:48.018Z,35.13
2022-11-22T11:47:21.094Z,32.37
2022-11-22T11:49:52.251Z,37.20
2022-11-22T11:52:23.636Z,37.90
2022-11-22T11:54:56.516Z,36.50
2022-11-22T11:57:33.778Z,35.47
2022-11-22T12:00:04.029Z,35.23
2022-11-22T12:02:41.949Z,40.93
2022-11-22T12:05:12.865Z,37.70
2022-11-22T12:07:45.373Z,36.43
2022-11-22T12:10:45.486Z,37.97
2022-11-22T12:13:18.454Z,38.97
2022-11-22T12:15:45.612Z,37.77
2022-11-22T12:18:45.898Z,41.57
2022-11-22T12:21:31.131Z,40.93
2022-11-22T12:24:26.571Z,40.77
2022-11-22T12:26:48.089Z,40.10
2022-11-22T12:29:16.318Z,43.17
2022-11-22T12:32:05.308Z,42.43
2022-11-22T12:34:36.758Z,42.90
2022-11-22T12:37:20.492Z,42.90
2022-11-22T12:39:51.335Z,39.97
2022-11-22T12:42:37.082Z,41.00
2022-11-22T12:45:13.560Z,40.97
2022-11-22T12:47:44.782Z,40.20
2022-11-22T12:50:11.726Z,41.23
2022-11-22T12:52:47.665Z,41.67
2022-11-22T12:55:29.214Z,36.53
2022-11-22T12:58:19.129Z,33.70
2022-11-22T13:01:15.571Z,35.07
2022-11-22T13:03:52.577Z,39.20
2022-11-22T13:06:24.138Z,36.47
2022-11-22T13:09:04.004Z,32.50
2022-11-22T13:11:37.463Z,36.97
2022-11-22T13:14:33.160Z,39.23
2022-11-22T13:17:06.693Z,36.10
2022-11-22T13:20:00.073Z,36.57
2022-11-22T13:22:31.326Z,38.47
2022-11-22T13:25:25.233Z,33.80
2022-11-22T13:27:54.028Z,35.97
2022-11-22T13:30:26.758Z,39.37
2022-11-22T13:32:56.279Z,34.80
2022-11-22T13:35:35.912Z,35.13
2022-11-22T13:38:14.213Z,35.10
2022-11-22T13:40:45.191Z,36.33
2022-11-22T13:43:21.476Z,36.70
2022-11-22T13:46:04.384Z,35.40
2022-11-22T13:48:40.547Z,38.80
2022-11-22T13:51:12.285Z,40.30
2022-11-22T13:53:43.221Z,38.93
2022-11-22T13:56:16.707Z,40.70
2022-11-22T13:58:52.653Z,37.93
2022-11-22T14:01:35.355Z,37.70
2022-11-22T14:04:19.085Z,38.37
2022-11-22T14:06:50.844Z,38.90
2022-11-22T14:09:38.127Z,40.27
2022-11-22T14:12:11.504Z,41.07
2022-11-22T14:14:38.465Z,41.50
2022-11-22T14:17:17.751Z,40.30
2022-11-22T14:19:50.992Z,42.90
2022-11-22T14:22:46.341Z,50.47
2022-11-22T14:25:22.617Z,45.37
2022-11-22T14:28:20.245Z,43.53
2022-11-22T14:30:54.156Z,39.43
2022-11-22T14:33:24.534Z,44.07
2022-11-22T14:36:06.689Z,42.83
2022-11-22T14:38:41.423Z,42.57
2022-11-22T14:41:26.960Z,43.13
2022-11-22T14:44:31.169Z,43.47
2022-11-22T14:47:10.522Z,42.20
2022-11-22T14:49:48.472Z,42.00
2022-11-22T14:52:22.766Z,41.80
2022-11-22T14:55:13.851Z,40.47
2022-11-22T14:57:41.938Z,41.73
2022-11-22T15:00:18.264Z,41.30
2022-11-22T15:03:17.687Z,39.93
2022-11-22T15:09:15.575Z,42.87
2022-11-22T15:09:39.354Z,43.60
2022-11-22T15:12:34.783Z,43.27
2022-11-22T15:57:24.495Z,52.43
2022-11-22T15:59:54.672Z,49.70
2022-11-22T16:02:25.376Z,49.43
2022-11-22T16:06:04.315Z,52.07
2022-11-22T16:07:48.653Z,51.13
2022-11-22T16:10:22.932Z,53.93
2022-11-22T16:12:51.075Z,50.97
2022-11-22T16:15:24.616Z,53.73
2022-11-22T16:17:59.470Z,56.30
2022-11-22T16:20:33.542Z,55.27
2022-11-22T16:23:15.079Z,50.90
2022-11-22T16:25:45.555Z,50.93
2022-11-22T16:28:35.904Z,53.37
2022-11-22T16:31:18.128Z,49.37
2022-11-22T16:33:46.042Z,50.67
2022-11-22T16:36:15.105Z,47.13
2022-11-22T16:38:43.338Z,53.33
2022-11-22T16:41:18.649Z,51.70
2022-11-22T16:43:46.400Z,49.83
2022-11-22T16:46:14.104Z,51.90
2022-11-22T16:48:42.551Z,48.17
2022-11-22T16:51:21.842Z,51.67
2022-11-22T16:53:50.565Z,51.17
2022-11-22T16:56:22.372Z,52.57
2022-11-22T16:58:50.221Z,51.57
2022-11-22T17:01:22.766Z,53.83
2022-11-22T17:03:52.327Z,60.10
2022-11-22T17:06:22.872Z,47.23
2022-11-22T17:08:53.030Z,47.63
2022-11-22T17:11:23.508Z,49.27
2022-11-22T17:13:50.860Z,49.90
2022-11-22T17:16:18.264Z,49.47
2022-11-22T17:18:46.647Z,46.87
2022-11-22T17:21:18.328Z,48.30
2022-11-22T17:23:45.534Z,46.30
2022-11-22T17:26:12.820Z,47.00
2022-11-22T17:28:39.777Z,48.03
2022-11-22T17:31:15.088Z,48.43
2022-11-22T17:33:42.448Z,50.07
2022-11-22T17:36:21.101Z,49.40
2022-11-22T17:38:48.207Z,49.80
2022-11-22T17:41:15.794Z,50.33
2022-11-22T17:43:42.920Z,51.57
2022-11-22T17:46:10.366Z,53.07
2022-11-22T17:48:37.380Z,56.10
2022-11-22T17:51:06.723Z,53.90
2022-11-22T17:53:34.116Z,51.97
2022-11-22T17:56:10.448Z,50.83
2022-11-22T17:58:39.835Z,50.80
2022-11-22T18:01:10.908Z,50.30
2022-11-22T18:03:39.030Z,51.03
2022-11-22T18:06:07.187Z,51.43
2022-11-22T18:08:34.584Z,51.47
2022-11-22T18:11:02.466Z,52.93
2022-11-22T18:13:32.305Z,50.37
2022-11-22T18:16:03.773Z,46.80
2022-11-22T18:21:19.727Z,49.17
2022-11-22T18:23:46.752Z,47.37
2022-11-22T18:26:38.118Z,48.87
2022-11-22T18:31:52.205Z,44.47
2022-11-22T18:34:23.188Z,48.77
2022-11-22T18:37:06.742Z,47.67
2022-11-22T18:39:37.153Z,48.63
2022-11-22T18:42:12.223Z,47.43
2022-11-22T18:44:39.313Z,55.00
2022-11-22T18:47:06.871Z,58.43
2022-11-22T18:49:34.592Z,60.93
2022-11-22T18:52:02.293Z,58.50
2022-11-22T18:54:29.429Z,59.17
2022-11-22T18:56:56.898Z,66.03
2022-11-22T18:59:23.875Z,70.93
2022-11-22T19:01:51.567Z,51.10
2022-11-22T19:04:18.567Z,50.30
2022-11-22T19:06:46.261Z,52.03
2022-11-22T19:09:13.257Z,50.50
2022-11-22T19:11:40.669Z,52.03
2022-11-22T19:14:07.725Z,55.37
2022-11-22T19:16:35.149Z,49.23
2022-11-22T19:19:02.139Z,52.30
2022-11-22T19:21:30.312Z,51.13
2022-11-22T19:23:57.519Z,52.10
2022-11-22T19:26:26.967Z,49.10
2022-11-22T19:28:56.156Z,55.70
2022-11-22T19:31:28.988Z,57.53
2022-11-22T19:33:57.470Z,53.60
2022-11-22T19:36:32.716Z,53.30
2022-11-22T19:39:01.220Z,50.53
2022-11-22T19:41:28.563Z,53.33
2022-11-22T19:43:56.375Z,51.63
2022-11-22T19:46:25.082Z,52.77
2022-11-22T19:48:53.972Z,53.17
2022-11-22T19:51:22.338Z,47.87
2022-11-22T19:53:53.420Z,50.90
2022-11-22T19:56:20.866Z,51.43
2022-11-22T19:58:52.327Z,53.67
2022-11-22T20:01:21.033Z,50.60
2022-11-22T20:03:52.682Z,50.93
2022-11-22T20:06:20.789Z,49.00
2022-11-22T20:08:47.822Z,47.43
2022-11-22T20:11:18.682Z,50.30
2022-11-22T20:13:48.131Z,50.13
2022-11-22T20:16:22.161Z,49.30
2022-11-22T20:18:58.344Z,51.50
2022-11-22T20:21:29.489Z,48.57
2022-11-22T20:23:56.952Z,51.77
2022-11-22T20:26:25.333Z,50.33
2022-11-22T20:28:56.358Z,53.20
2022-11-22T20:31:24.135Z,56.20
2022-11-22T20:33:54.233Z,54.47
2022-11-22T20:36:24.442Z,55.07
2022-11-22T20:38:52.547Z,53.77
2022-11-22T20:41:22.253Z,52.43
2022-11-22T20:43:52.698Z,50.47
2022-11-22T20:46:27.611Z,53.60
2022-11-22T20:48:56.392Z,49.60
2022-11-22T20:51:26.424Z,50.07
2022-11-22T20:53:53.866Z,51.20
2022-11-22T20:56:21.974Z,50.20
2022-11-22T20:58:48.948Z,50.90
2022-11-22T21:01:19.336Z,50.80
2022-11-22T21:03:47.187Z,49.37
2022-11-22T21:06:15.655Z,50.50
2022-11-22T21:08:42.848Z,52.47
2022-11-22T21:11:18.006Z,47.67
2022-11-22T21:13:47.160Z,48.23
2022-11-22T21:16:24.861Z,50.80
2022-11-22T21:19:05.045Z,53.00
2022-11-22T21:21:35.744Z,53.07
2022-11-22T21:24:04.609Z,54.17
2022-11-22T21:26:32.551Z,56.97
2022-11-22T21:29:00.821Z,52.53
2022-11-22T21:31:28.425Z,51.30
2022-11-22T21:33:55.935Z,53.07
2022-11-22T21:36:22.981Z,53.33
2022-11-22T21:38:50.332Z,47.80
2022-11-22T21:44:07.770Z,51.80
2022-11-22T21:46:34.717Z,54.00
2022-11-22T21:49:01.899Z,54.53
2022-11-22T21:51:28.964Z,50.90
2022-11-22T21:54:00.652Z,47.93
2022-11-22T21:56:28.230Z,52.10
2022-11-22T21:58:56.084Z,50.13
2022-11-22T22:01:23.583Z,52.30
2022-11-22T22:03:51.146Z,53.53
2022-11-22T22:06:18.910Z,54.53
2022-11-22T22:08:46.200Z,53.13
2022-11-22T22:11:13.399Z,52.40
2022-11-22T22:13:40.701Z,51.27
2022-11-22T22:16:08.824Z,49.20
2022-11-22T22:18:37.734Z,53.23
2022-11-22T22:21:07.363Z,51.03
2022-11-22T22:23:36.025Z,50.40
2022-11-22T22:26:05.632Z,51.40
2022-11-22T22:28:35.228Z,51.20
2022-11-22T22:31:23.137Z,49.37
2022-11-22T22:33:55.444Z,50.17
2022-11-22T22:36:23.877Z,50.87
2022-11-22T22:38:51.500Z,47.97
2022-11-22T22:41:18.949Z,50.77
2022-11-22T22:43:48.358Z,47.47
2022-11-22T22:46:20.999Z,50.77
2022-11-22T22:48:49.600Z,50.47
2022-11-22T22:51:30.442Z,48.73
2022-11-22T22:53:59.094Z,48.93
2022-11-22T22:56:28.409Z,49.30
2022-11-22T22:58:57.664Z,48.30
2022-11-22T23:01:29.725Z,46.93
2022-11-22T23:03:59.085Z,46.07
2022-11-22T23:06:28.261Z,47.77
2022-11-22T23:08:56.339Z,49.87
2022-11-22T23:11:49.837Z,49.23
2022-11-22T23:14:21.435Z,49.07
2022-11-22T23:16:50.230Z,46.53
2022-11-22T23:19:20.662Z,49.53
2022-11-22T23:21:47.563Z,50.37
2022-11-22T23:24:14.827Z,48.97
2022-11-22T23:26:41.873Z,47.00
2022-11-22T23:29:09.121Z,49.53
2022-11-22T23:31:36.037Z,48.13
2022-11-22T23:34:03.229Z,47.90
2022-11-22T23:36:30.274Z,46.97
2022-11-22T23:38:57.613Z,49.23
2022-11-22T23:41:25.357Z,50.37
2022-11-22T23:43:56.520Z,47.10
2022-11-22T23:46:27.454Z,48.83
2022-11-22T23:48:56.972Z,49.87
2022-11-22T23:51:25.246Z,47.03
2022-11-22T23:54:03.184Z,50.40
2022-11-22T23:56:31.764Z,45.80
2022-11-22T23:59:00.169Z,48.20
